Time;durP1;ratioP1;P1;durP2;ratioP2;P2;SDS_P1;SDS_P2;PMS_P1;PMS_P2;Temp;Humidity;BMP_temperature;BMP_pressure;BME280_temperature;BME280_humidity;BME280_pressure;Samples;Min_cycle;Max_cycle;Signal;HPM_P1;HPM_P2
2022/11/24 00:01:03;;;;;;;8.95;1.20;;;;;;;6.16;100.00;99699.50;5051878;28;20029;-71
2022/11/24 00:03:28;;;;;;;10.43;1.80;;;;;;;6.12;100.00;99690.94;5066325;28;20040;-71
2022/11/24 00:05:53;;;;;;;9.10;2.00;;;;;;;6.10;100.00;99706.97;5059885;28;20035;-71
2022/11/24 00:08:19;;;;;;;11.30;2.00;;;;;;;6.07;100.00;99693.72;5045165;28;20039;-71
2022/11/24 00:10:44;;;;;;;10.18;1.88;;;;;;;5.99;100.00;99697.91;5044616;28;20683;-71
2022/11/24 00:13:10;;;;;;;6.65;1.55;;;;;;;5.95;100.00;99698.75;5065776;28;20025;-71
2022/11/24 00:15:35;;;;;;;8.00;1.65;;;;;;;5.93;100.00;99704.53;5060726;28;20065;-71
2022/11/24 00:18:01;;;;;;;7.40;1.75;;;;;;;5.89;100.00;99706.19;5065338;28;20024;-71
2022/11/24 00:20:26;;;;;;;9.75;1.48;;;;;;;5.88;100.00;99706.47;5060297;28;20055;-71
2022/11/24 00:22:52;;;;;;;10.15;1.58;;;;;;;5.83;100.00;99705.41;5061374;28;20032;-71
2022/11/24 00:25:17;;;;;;;11.00;1.55;;;;;;;5.80;100.00;99705.97;5061376;28;20477;-71
2022/11/24 00:27:43;;;;;;;9.35;1.73;;;;;;;5.76;100.00;99710.38;5077759;28;20063;-71
2022/11/24 00:30:08;;;;;;;11.15;1.90;;;;;;;5.74;100.00;99722.78;5060364;28;20393;-71
2022/11/24 00:32:34;;;;;;;5.60;1.42;;;;;;;5.71;100.00;99721.44;5055184;28;20389;-71
2022/11/24 00:34:59;;;;;;;7.43;1.38;;;;;;;5.67;100.00;99716.75;5041027;28;20042;-71
2022/11/24 00:37:25;;;;;;;7.00;1.45;;;;;;;5.65;100.00;99728.03;5060898;28;20070;-71
2022/11/24 00:39:50;;;;;;;7.82;1.70;;;;;;;5.63;100.00;99719.25;5040400;28;20028;-71
2022/11/24 00:42:16;;;;;;;7.20;1.33;;;;;;;5.62;100.00;99731.38;5068150;28;20365;-71
2022/11/24 00:44:41;;;;;;;4.50;1.23;;;;;;;5.57;100.00;99729.47;5027411;28;20025;-71
2022/11/24 00:47:06;;;;;;;6.07;1.58;;;;;;;5.54;100.00;99730.03;5043844;28;20024;-71
2022/11/24 00:49:32;;;;;;;6.18;1.30;;;;;;;5.53;100.00;99735.81;5059836;28;20048;-71
2022/11/24 00:51:57;;;;;;;9.93;1.52;;;;;;;5.51;100.00;99744.34;5039843;28;20064;-71
2022/11/24 00:54:23;;;;;;;7.80;1.48;;;;;;;5.49;100.00;99732.78;5057794;28;20035;-71
2022/11/24 00:56:48;;;;;;;9.88;1.60;;;;;;;5.47;100.00;99735.00;5044120;28;20032;-71
2022/11/24 00:59:14;;;;;;;8.25;2.00;;;;;;;5.44;100.00;99734.75;5043985;28;20577;-71
2022/11/24 01:01:40;;;;;;;6.53;1.65;;;;;;;5.43;100.00;99742.16;5043840;28;20055;-71
2022/11/24 01:04:06;;;;;;;4.88;1.58;;;;;;;5.40;100.00;99753.72;5039390;28;20108;-71
2022/11/24 01:06:31;;;;;;;7.00;1.67;;;;;;;5.38;100.00;99753.19;5073672;28;20065;-71
2022/11/24 01:08:57;;;;;;;6.63;1.33;;;;;;;5.34;100.00;99749.34;5043717;28;20028;-71
2022/11/24 01:11:24;;;;;;;8.73;1.63;;;;;;;5.33;100.00;99761.47;5043607;28;20033;-71
2022/11/24 01:13:54;;;;;;;7.03;1.42;;;;;;;5.31;100.00;99766.41;5076724;28;20541;-71
2022/11/24 01:16:31;;;;;;;8.95;1.58;;;;;;;5.29;100.00;99768.63;5042080;28;20558;-71
2022/11/24 01:18:56;;;;;;;7.57;1.17;;;;;;;5.27;100.00;99773.59;5063385;28;20070;-71
2022/11/24 01:21:22;;;;;;;8.88;2.08;;;;;;;5.24;100.00;99785.97;5027156;28;20036;-71
2022/11/24 01:23:48;;;;;;;9.05;1.92;;;;;;;5.22;100.00;99795.63;5026631;28;20096;-71
2022/11/24 01:26:15;;;;;;;7.53;1.30;;;;;;;5.22;100.00;99793.69;5060111;28;20083;-71
2022/11/24 01:28:40;;;;;;;10.43;1.80;;;;;;;5.19;100.00;99790.66;5060152;28;20033;-71
2022/11/24 01:31:06;;;;;;;8.50;2.30;;;;;;;5.18;100.00;99791.75;5059897;28;20054;-71
2022/11/24 01:33:32;;;;;;;5.30;1.25;;;;;;;5.13;100.00;99790.66;5043331;28;20028;-71
2022/11/24 01:35:58;;;;;;;6.35;1.52;;;;;;;5.12;100.00;99800.00;5075815;28;20029;-71
2022/11/24 01:38:24;;;;;;;11.73;1.30;;;;;;;5.09;100.00;99795.06;5040136;28;20036;-71
2022/11/24 01:40:58;;;;;;;8.32;1.50;;;;;;;5.04;100.00;99808.84;5035818;28;20460;-71
2022/11/24 01:43:24;;;;;;;6.47;1.10;;;;;;;5.06;100.00;99814.88;5028487;28;20108;-71
2022/11/24 01:45:49;;;;;;;7.40;1.88;;;;;;;5.06;100.00;99817.63;5053423;28;20036;-71
2022/11/24 01:48:26;;;;;;;12.40;1.80;;;;;;;5.02;100.00;99821.22;5056034;28;20025;-71
2022/11/24 01:51:01;;;;;;;11.88;1.67;;;;;;;5.02;100.00;99833.03;5038315;28;20028;-71
2022/11/24 01:53:26;;;;;;;10.27;1.80;;;;;;;5.02;100.00;99832.22;5040426;28;20036;-71
2022/11/24 01:55:52;;;;;;;8.27;2.05;;;;;;;5.02;100.00;99838.56;5072785;28;20028;-71
2022/11/24 01:58:19;;;;;;;5.72;1.30;;;;;;;5.02;100.00;99838.56;5045985;28;20021;-71
2022/11/24 02:00:45;;;;;;;11.23;1.95;;;;;;;5.00;100.00;99843.50;5059860;28;20446;-71
2022/11/24 02:03:17;;;;;;;8.07;1.83;;;;;;;5.00;100.00;99843.50;5042956;28;20029;-71
2022/11/24 02:05:45;;;;;;;11.57;1.63;;;;;;;4.97;100.00;99846.78;5059703;28;20544;-71
2022/11/24 02:08:21;;;;;;;7.50;1.30;;;;;;;4.95;100.00;99854.50;5066465;28;20053;-71
2022/11/24 02:10:47;;;;;;;11.02;1.67;;;;;;;4.95;100.00;99857.25;5059297;28;20058;-71
2022/11/24 02:13:13;;;;;;;6.90;1.30;;;;;;;4.93;100.00;99863.03;5059537;28;20029;-71
2022/11/24 02:15:38;;;;;;;9.90;1.50;;;;;;;4.93;100.00;99868.53;5055945;28;20051;-71
2022/11/24 02:18:04;;;;;;;6.72;2.00;;;;;;;4.90;100.00;99874.59;5052484;28;20028;-71
2022/11/24 02:20:30;;;;;;;9.80;1.90;;;;;;;4.92;100.00;99879.81;5055708;28;20111;-71
2022/11/24 02:23:10;;;;;;;6.45;1.52;;;;;;;4.91;100.00;99881.72;5055803;28;20029;-71
2022/11/24 02:25:41;;;;;;;6.53;1.52;;;;;;;4.89;100.00;99892.19;5042079;28;20062;-71
2022/11/24 02:28:09;;;;;;;8.57;1.40;;;;;;;4.89;100.00;99885.84;5041972;28;20032;-70
2022/11/24 02:30:34;;;;;;;7.07;1.40;;;;;;;4.87;100.00;99890.78;5058934;28;20024;-71
2022/11/24 02:33:01;;;;;;;8.13;1.55;;;;;;;4.84;100.00;99889.41;5058371;28;20532;-71
2022/11/24 02:35:26;;;;;;;8.27;1.50;;;;;;;4.85;100.00;99898.50;5042171;28;20082;-71
2022/11/24 02:37:52;;;;;;;7.63;1.90;;;;;;;4.85;100.00;99898.50;5075341;28;20024;-70
2022/11/24 02:40:19;;;;;;;7.65;1.48;;;;;;;4.81;100.00;99903.72;5041881;28;20027;-71
2022/11/24 02:42:44;;;;;;;4.63;1.20;;;;;;;4.80;100.00;99891.06;5058843;28;20463;-71
2022/11/24 02:45:10;;;;;;;5.38;1.30;;;;;;;4.78;100.00;99893.25;5058597;28;20035;-71
2022/11/24 02:47:35;;;;;;;8.02;1.45;;;;;;;4.79;100.00;99899.56;5058326;28;20028;-71
2022/11/24 02:50:01;;;;;;;8.65;1.30;;;;;;;4.75;100.00;99904.78;5041764;28;20024;-71
2022/11/24 02:52:26;;;;;;;8.05;1.55;;;;;;;4.75;100.00;99898.47;5041568;28;20047;-71
2022/11/24 02:54:52;;;;;;;9.82;1.67;;;;;;;4.72;100.00;99899.00;5041585;28;20032;-71
2022/11/24 02:57:17;;;;;;;7.15;1.40;;;;;;;4.68;100.00;99896.81;5041852;28;20032;-71
2022/11/24 02:59:43;;;;;;;8.95;1.40;;;;;;;4.67;100.00;99903.38;5038341;28;20238;-71
2022/11/24 03:02:09;;;;;;;8.75;1.80;;;;;;;4.66;100.00;99900.94;5053337;28;20024;-71
2022/11/24 03:04:34;;;;;;;5.97;1.20;;;;;;;4.64;100.00;99908.63;5041600;28;20048;-71
2022/11/24 03:07:00;;;;;;;7.93;1.60;;;;;;;4.62;100.00;99905.28;5056253;28;20037;-71
2022/11/24 03:09:25;;;;;;;5.00;1.27;;;;;;;4.61;100.00;99903.66;5041559;28;20029;-71
2022/11/24 03:11:51;;;;;;;7.93;1.42;;;;;;;4.62;100.00;99906.13;5057949;28;20092;-70
2022/11/24 03:14:16;;;;;;;10.13;1.63;;;;;;;4.59;100.00;99903.91;5041832;28;20033;-71
2022/11/24 03:16:42;;;;;;;15.35;1.85;;;;;;;4.57;100.00;99892.38;5040198;28;20056;-71
2022/11/24 03:19:07;;;;;;;5.55;1.30;;;;;;;4.55;100.00;99883.56;5037736;28;20083;-71
2022/11/24 03:21:34;;;;;;;6.72;1.20;;;;;;;4.54;100.00;99890.16;5069261;28;20032;-71
2022/11/24 03:24:00;;;;;;;9.55;1.85;;;;;;;4.52;100.00;99875.03;5041706;28;20028;-71
2022/11/24 03:26:25;;;;;;;9.30;2.40;;;;;;;4.51;100.00;99887.09;5041218;28;20499;-71
2022/11/24 03:28:55;;;;;;;7.50;1.77;;;;;;;4.50;100.00;99879.97;5057438;28;20036;-71
2022/11/24 03:31:20;;;;;;;6.80;2.00;;;;;;;4.50;100.00;99877.22;5057629;28;20508;-71
2022/11/24 03:33:46;;;;;;;8.38;2.10;;;;;;;4.47;100.00;99887.66;5057572;28;20051;-70
2022/11/24 03:36:11;;;;;;;7.60;2.05;;;;;;;4.46;100.00;99896.19;5074374;28;20035;-70
2022/11/24 03:38:37;;;;;;;8.73;2.03;;;;;;;4.46;100.00;99904.44;5074764;28;20031;-71
2022/11/24 03:41:02;;;;;;;11.77;1.88;;;;;;;4.43;100.00;99911.28;5073799;28;20028;-71
2022/11/24 03:43:28;;;;;;;7.72;2.17;;;;;;;4.41;100.00;99904.41;5040953;28;20647;-71
2022/11/24 03:45:53;;;;;;;9.95;2.00;;;;;;;4.39;100.00;99910.16;5040913;28;20039;-71
2022/11/24 03:48:20;;;;;;;12.93;2.38;;;;;;;4.37;100.00;99900.50;5057484;28;20404;-70
2022/11/24 03:50:55;;;;;;;12.10;2.05;;;;;;;4.35;100.00;99906.28;5054080;28;20033;-71
2022/11/24 03:53:21;;;;;;;10.18;2.08;;;;;;;4.34;100.00;99909.31;5057435;28;20051;-71
2022/11/24 03:55:46;;;;;;;10.25;2.03;;;;;;;4.34;100.00;99903.81;5057612;28;20571;-70
2022/11/24 03:58:12;;;;;;;11.30;1.90;;;;;;;4.33;100.00;99902.97;5057322;28;20021;-70
2022/11/24 04:00:37;;;;;;;10.93;2.00;;;;;;;4.36;100.00;99907.13;5040649;28;20055;-70
2022/11/24 04:03:03;;;;;;;7.72;1.77;;;;;;;4.36;100.00;99904.38;5040566;28;20017;-71
2022/11/24 04:05:28;;;;;;;7.13;1.83;;;;;;;4.35;100.00;99899.97;5057412;28;20050;-70
2022/11/24 04:07:56;;;;;;;7.07;1.80;;;;;;;4.35;100.00;99899.97;5052719;28;20652;-71
2022/11/24 04:10:22;;;;;;;7.65;2.15;;;;;;;4.33;100.00;99897.47;5039335;28;20029;-70
2022/11/24 04:12:47;;;;;;;10.63;1.88;;;;;;;4.33;100.00;99891.16;5066295;28;20032;-70
2022/11/24 04:15:14;;;;;;;11.88;1.80;;;;;;;4.33;100.00;99883.75;5051952;28;20032;-71
2022/11/24 04:17:40;;;;;;;6.13;1.65;;;;;;;4.32;100.00;99890.34;5056712;28;20037;-71
2022/11/24 04:20:06;;;;;;;7.38;2.80;;;;;;;4.33;100.00;99888.41;5073960;28;20054;-71
2022/11/24 04:22:31;;;;;;;8.15;2.25;;;;;;;4.34;100.00;99881.81;5057215;28;20028;-71
2022/11/24 04:24:57;;;;;;;12.85;2.22;;;;;;;4.31;100.00;99887.84;5040075;28;20039;-71
2022/11/24 04:27:22;;;;;;;13.75;2.45;;;;;;;4.31;100.00;99882.34;5040806;28;20025;-71
2022/11/24 04:29:48;;;;;;;9.05;2.40;;;;;;;4.30;100.00;99886.19;5040386;28;20036;-71
2022/11/24 04:32:14;;;;;;;10.32;2.08;;;;;;;4.30;100.00;99891.69;5040254;28;20024;-71
2022/11/24 04:34:39;;;;;;;10.30;2.40;;;;;;;4.31;100.00;99893.34;5057062;28;20393;-71
2022/11/24 04:37:05;;;;;;;13.88;2.47;;;;;;;4.30;100.00;99883.47;5024417;28;20032;-71
2022/11/24 04:39:30;;;;;;;13.45;2.88;;;;;;;4.30;100.00;99877.97;5057431;28;20029;-71
2022/11/24 04:41:55;;;;;;;11.60;2.53;;;;;;;4.30;100.00;99881.53;5057059;28;20028;-70
2022/11/24 04:44:21;;;;;;;14.85;2.50;;;;;;;4.30;100.00;99888.94;5021576;28;20036;-71
2022/11/24 04:46:46;;;;;;;12.68;2.90;;;;;;;4.30;100.00;99897.19;5040342;28;20514;-71
2022/11/24 04:49:12;;;;;;;15.25;2.83;;;;;;;4.31;100.00;99893.34;5040197;28;20074;-71
2022/11/24 04:51:38;;;;;;;16.33;2.75;;;;;;;4.30;100.00;99892.53;5074026;28;20045;-71
2022/11/24 04:54:04;;;;;;;18.23;3.35;;;;;;;4.31;100.00;99890.59;5065884;28;20032;-71
2022/11/24 04:56:30;;;;;;;12.57;2.70;;;;;;;4.32;100.00;99890.34;5057208;28;20041;-71
2022/11/24 04:58:55;;;;;;;12.38;3.05;;;;;;;4.32;100.00;99881.25;5057094;28;20052;-71
2022/11/24 05:01:21;;;;;;;23.42;3.42;;;;;;;4.33;100.00;99882.91;5027271;28;20567;-71
2022/11/24 05:03:46;;;;;;;20.15;3.72;;;;;;;4.32;100.00;99882.09;5076956;28;20025;-71
2022/11/24 05:06:12;;;;;;;27.77;4.25;;;;;;;4.34;100.00;99881.81;5043972;28;20024;-71
2022/11/24 05:08:37;;;;;;;16.10;2.83;;;;;;;4.35;100.00;99883.47;5043793;28;20400;-71
2022/11/24 05:11:06;;;;;;;12.60;3.13;;;;;;;4.34;100.00;99887.31;5060371;28;20025;-71
2022/11/24 05:13:31;;;;;;;16.60;3.58;;;;;;;4.34;100.00;99890.88;5060398;28;20059;-71
2022/11/24 05:15:58;;;;;;;21.08;3.70;;;;;;;4.37;100.00;99886.78;5043511;28;20028;-71
2022/11/24 05:18:24;;;;;;;14.75;3.47;;;;;;;4.37;100.00;99881.28;5042773;28;20135;-71
2022/11/24 05:20:49;;;;;;;17.77;3.38;;;;;;;4.37;100.00;99886.78;5076754;28;20077;-70
2022/11/24 05:23:15;;;;;;;20.75;3.63;;;;;;;4.37;100.00;99887.59;5043363;28;20040;-71
2022/11/24 05:25:40;;;;;;;18.25;3.50;;;;;;;4.39;100.00;99890.91;5040231;28;20660;-71
2022/11/24 05:28:09;;;;;;;19.02;3.55;;;;;;;4.39;100.00;99884.59;5059971;28;20094;-71
2022/11/24 05:30:38;;;;;;;16.88;3.17;;;;;;;4.38;100.00;99891.19;5073173;28;20036;-70
2022/11/24 05:33:07;;;;;;;18.42;3.45;;;;;;;4.40;100.00;99888.97;5059644;28;20036;-70
2022/11/24 05:35:34;;;;;;;16.08;3.25;;;;;;;4.41;100.00;99894.22;5056513;28;20035;-70
2022/11/24 05:37:59;;;;;;;15.35;3.05;;;;;;;4.41;100.00;99891.47;5071572;28;20626;-71
2022/11/24 05:40:25;;;;;;;23.70;4.40;;;;;;;4.41;100.00;99891.47;5060032;28;20024;-71
2022/11/24 05:42:50;;;;;;;22.25;3.50;;;;;;;4.42;100.00;99898.63;5076465;28;20412;-71
2022/11/24 05:45:18;;;;;;;28.27;4.10;;;;;;;4.43;100.00;99891.19;5043175;28;20047;-70
2022/11/24 05:47:43;;;;;;;28.20;3.70;;;;;;;4.45;100.00;99900.00;5059832;28;20039;-71
2022/11/24 05:50:10;;;;;;;16.35;3.65;;;;;;;4.43;100.00;99903.03;5059686;28;20028;-71
2022/11/24 05:52:35;;;;;;;20.42;3.60;;;;;;;4.45;100.00;99897.25;5041979;28;20056;-71
2022/11/24 05:55:01;;;;;;;18.88;3.42;;;;;;;4.47;100.00;99895.06;5076178;28;20024;-70
2022/11/24 05:57:27;;;;;;;22.67;3.85;;;;;;;4.50;100.00;99891.78;5042652;28;20504;-71
2022/11/24 05:59:52;;;;;;;27.52;3.80;;;;;;;4.45;100.00;99883.50;5042774;28;20024;-70
2022/11/24 06:02:18;;;;;;;19.27;3.78;;;;;;;4.50;100.00;99879.97;5075491;28;20024;-70
2022/11/24 06:04:43;;;;;;;16.70;3.15;;;;;;;4.51;100.00;99882.41;5062089;28;20025;-70
2022/11/24 06:07:10;;;;;;;19.15;3.72;;;;;;;4.47;100.00;99878.56;5058243;28;20028;-71
2022/11/24 06:09:36;;;;;;;24.80;4.30;;;;;;;4.51;100.00;99882.41;5022929;28;20029;-71
2022/11/24 06:12:03;;;;;;;19.17;4.15;;;;;;;4.51;100.00;99879.66;5054577;28;20025;-71
2022/11/24 06:14:28;;;;;;;20.70;3.40;;;;;;;4.50;100.00;99880.78;5026223;28;20028;-71
2022/11/24 06:16:54;;;;;;;25.45;4.00;;;;;;;4.51;100.00;99890.66;5058903;28;20040;-71
2022/11/24 06:19:19;;;;;;;23.52;3.75;;;;;;;4.52;100.00;99897.84;5042378;28;20024;-70
2022/11/24 06:21:45;;;;;;;35.05;4.10;;;;;;;4.53;100.00;99901.41;5075719;28;20028;-71
2022/11/24 06:24:10;;;;;;;23.25;3.55;;;;;;;4.54;100.00;99900.31;5059034;28;20079;-71
2022/11/24 06:26:36;;;;;;;32.78;4.85;;;;;;;4.55;100.00;99902.81;5058886;28;20500;-70
2022/11/24 06:29:01;;;;;;;26.85;4.43;;;;;;;4.57;100.00;99903.38;5058851;28;20044;-71
2022/11/24 06:31:27;;;;;;;33.15;4.68;;;;;;;4.59;100.00;99906.66;5058857;28;20028;-71
2022/11/24 06:33:52;;;;;;;32.75;3.67;;;;;;;4.60;100.00;99904.75;5043509;28;20469;-70
2022/11/24 06:36:18;;;;;;;26.25;4.32;;;;;;;4.62;100.00;99911.63;5053672;28;20047;-71
2022/11/24 06:38:43;;;;;;;26.40;3.90;;;;;;;4.64;100.00;99911.38;5050484;28;20020;-70
2022/11/24 06:41:11;;;;;;;20.95;4.05;;;;;;;4.68;100.00;99910.56;5053605;28;20040;-70
2022/11/24 06:43:36;;;;;;;29.63;5.00;;;;;;;4.69;100.00;99909.44;5053696;28;20028;-70
2022/11/24 06:46:02;;;;;;;33.65;5.25;;;;;;;4.70;100.00;99902.84;5041881;28;20537;-70
2022/11/24 06:48:27;;;;;;;24.20;4.18;;;;;;;4.70;100.00;99902.84;5038402;28;20033;-70
2022/11/24 06:50:53;;;;;;;22.33;3.92;;;;;;;4.73;100.00;99895.16;5041622;28;20047;-70
2022/11/24 06:53:18;;;;;;;27.45;4.63;;;;;;;4.72;100.00;99888.84;5071724;28;20091;-71
2022/11/24 06:55:44;;;;;;;25.35;3.85;;;;;;;4.70;100.00;99897.34;5058463;28;20039;-70
2022/11/24 06:58:10;;;;;;;32.13;5.18;;;;;;;4.75;100.00;99893.78;5049685;28;20028;-71
2022/11/24 07:00:36;;;;;;;19.13;3.72;;;;;;;4.76;100.00;99894.63;5058193;28;20044;-70
2022/11/24 07:03:01;;;;;;;29.55;4.95;;;;;;;4.77;100.00;99896.28;5074590;28;20388;-71
2022/11/24 07:05:27;;;;;;;37.85;4.88;;;;;;;4.78;100.00;99903.44;5024969;28;20021;-70
2022/11/24 07:07:52;;;;;;;23.85;3.78;;;;;;;4.72;100.00;99918.28;5074769;28;20082;-70
2022/11/24 07:10:18;;;;;;;29.70;4.82;;;;;;;4.75;100.00;99914.97;5041468;28;20032;-70
2022/11/24 07:12:43;;;;;;;22.35;4.20;;;;;;;4.76;100.00;99906.44;5057839;28;20032;-70
2022/11/24 07:15:09;;;;;;;22.50;3.58;;;;;;;4.78;100.00;99918.00;5057267;28;20067;-70
2022/11/24 07:17:38;;;;;;;25.73;4.57;;;;;;;4.80;100.00;99906.75;5057774;28;20028;-70
2022/11/24 07:20:04;;;;;;;24.27;4.50;;;;;;;4.78;100.00;99917.19;5106539;28;20397;-70
2022/11/24 07:22:30;;;;;;;32.03;4.95;;;;;;;4.78;100.00;99914.44;5073822;28;20489;-71
2022/11/24 07:24:55;;;;;;;22.35;3.72;;;;;;;4.77;100.00;99919.13;5057825;28;20051;-70
2022/11/24 07:27:21;;;;;;;30.60;3.90;;;;;;;4.79;100.00;99927.94;5057938;28;20039;-70
2022/11/24 07:29:46;;;;;;;24.75;4.38;;;;;;;4.80;100.00;99923.25;5057767;28;20028;-70
2022/11/24 07:32:12;;;;;;;30.67;4.38;;;;;;;4.80;100.00;99926.00;5073917;28;20024;-71
2022/11/24 07:34:37;;;;;;;30.77;4.88;;;;;;;4.80;100.00;99923.25;5041213;28;20036;-70
2022/11/24 07:37:03;;;;;;;23.58;4.43;;;;;;;4.81;100.00;99913.91;5074522;28;20028;-70
2022/11/24 07:39:28;;;;;;;23.25;4.30;;;;;;;4.82;100.00;99916.38;5074426;28;20025;-70
2022/11/24 07:41:54;;;;;;;22.25;4.10;;;;;;;4.83;100.00;99922.72;5057571;28;20028;-70
2022/11/24 07:44:19;;;;;;;26.20;4.47;;;;;;;4.82;100.00;99927.41;5057707;28;20028;-70
2022/11/24 07:46:45;;;;;;;32.10;4.50;;;;;;;4.84;100.00;99918.84;5054402;28;20039;-70
2022/11/24 07:49:10;;;;;;;29.65;3.80;;;;;;;4.86;100.00;99916.66;5085090;28;20025;-70
2022/11/24 07:51:36;;;;;;;36.20;4.50;;;;;;;4.87;100.00;99913.63;5037554;28;20064;-70
2022/11/24 07:54:01;;;;;;;24.83;4.25;;;;;;;4.91;100.00;99911.19;5041394;28;20029;-70
2022/11/24 07:56:27;;;;;;;30.45;4.05;;;;;;;4.90;100.00;99902.09;5054246;28;20067;-71
2022/11/24 07:58:52;;;;;;;27.52;3.95;;;;;;;4.94;100.00;99905.13;5038459;28;20110;-70
2022/11/24 08:01:18;;;;;;;28.90;5.25;;;;;;;4.98;100.00;99903.47;5037476;28;20036;-71
2022/11/24 08:03:43;;;;;;;33.67;4.35;;;;;;;5.01;100.00;99908.44;5051747;28;20584;-70
2022/11/24 08:06:09;;;;;;;32.47;4.80;;;;;;;5.05;100.00;99904.06;5057816;28;20028;-70
2022/11/24 08:08:35;;;;;;;31.45;4.65;;;;;;;5.11;100.00;99897.44;5056993;28;20028;-70
2022/11/24 08:11:07;;;;;;;28.85;4.65;;;;;;;5.18;100.00;99910.13;5074128;28;20032;-70
2022/11/24 08:13:33;;;;;;;39.20;5.25;;;;;;;5.22;100.00;99903.81;5061910;28;20111;-71
2022/11/24 08:16:03;;;;;;;28.48;4.50;;;;;;;5.28;100.00;99894.44;5074132;28;20131;-70
2022/11/24 08:18:28;;;;;;;34.60;4.80;;;;;;;5.35;100.00;99888.69;5057219;28;20032;-70
2022/11/24 08:20:56;;;;;;;23.23;3.78;;;;;;;5.43;100.00;99896.38;5057430;28;20031;-71
2022/11/24 08:23:22;;;;;;;26.05;3.85;;;;;;;5.53;100.00;99898.31;5057390;28;20033;-70
2022/11/24 08:25:47;;;;;;;25.40;4.13;;;;;;;5.60;100.00;99890.63;5057805;28;20024;-70
2022/11/24 08:28:13;;;;;;;22.27;4.00;;;;;;;5.69;100.00;99893.63;5064426;28;20041;-71
2022/11/24 08:30:38;;;;;;;24.45;4.45;;;;;;;5.75;100.00;99893.34;5061260;28;20032;-71
2022/11/24 08:33:03;;;;;;;25.45;4.03;;;;;;;5.83;100.00;99898.28;5078581;28;20040;-70
2022/11/24 08:35:29;;;;;;;25.35;3.83;;;;;;;5.90;100.00;99897.19;5077665;28;20029;-71
2022/11/24 08:37:54;;;;;;;32.75;5.18;;;;;;;5.97;100.00;99908.78;5061010;28;20051;-70
2022/11/24 08:40:20;;;;;;;30.83;3.90;;;;;;;6.00;100.00;99903.53;5043274;28;20040;-70
2022/11/24 08:42:46;;;;;;;28.23;4.22;;;;;;;6.10;100.00;99902.69;5077242;28;20046;-70
2022/11/24 08:45:11;;;;;;;37.47;4.75;;;;;;;6.17;100.00;99894.13;5075428;28;20032;-71
2022/11/24 08:47:37;;;;;;;32.28;4.85;;;;;;;6.20;100.00;99897.13;5060679;28;20051;-70
2022/11/24 08:50:04;;;;;;;42.40;5.13;;;;;;;6.25;100.00;99902.66;5060561;28;20032;-70
2022/11/24 08:52:30;;;;;;;28.58;4.30;;;;;;;6.28;100.00;99897.69;5060651;28;20074;-70
2022/11/24 08:54:55;;;;;;;34.85;4.28;;;;;;;6.34;100.00;99889.09;5060366;28;20025;-70
2022/11/24 08:57:20;;;;;;;30.02;3.97;;;;;;;6.38;100.00;99890.22;5076982;28;20054;-71
2022/11/24 08:59:46;;;;;;;32.25;5.13;;;;;;;6.43;100.00;99887.41;5060577;28;20027;-70
2022/11/24 09:02:12;;;;;;;31.25;4.30;;;;;;;6.48;100.00;99903.94;5060128;28;20035;-71
2022/11/24 09:04:37;;;;;;;31.05;4.22;;;;;;;6.55;100.00;99898.13;5055029;28;20032;-70
2022/11/24 09:07:03;;;;;;;36.30;3.83;;;;;;;6.61;100.00;99896.19;5060351;28;20115;-71
2022/11/24 09:09:28;;;;;;;38.35;3.97;;;;;;;6.69;100.00;99909.41;5060540;28;20074;-70
2022/11/24 09:11:54;;;;;;;34.85;4.63;;;;;;;6.79;100.00;99908.50;5060233;28;20032;-71
2022/11/24 09:14:19;;;;;;;31.83;4.40;;;;;;;6.85;100.00;99897.19;5067966;28;20528;-71
2022/11/24 09:16:45;;;;;;;29.83;4.57;;;;;;;6.93;100.00;99893.78;5056197;28;20041;-71
2022/11/24 09:19:10;;;;;;;35.75;5.07;;;;;;;7.01;100.00;99894.31;5043492;28;20074;-70
2022/11/24 09:21:37;;;;;;;40.15;5.60;;;;;;;7.06;100.00;99889.59;5060257;28;20500;-70
2022/11/24 09:24:03;;;;;;;36.58;4.45;;;;;;;7.13;100.00;99892.00;5060379;28;20028;-70
2022/11/24 09:26:31;;;;;;;42.90;5.15;;;;;;;7.18;100.00;99894.75;5043650;28;20570;-70
2022/11/24 09:28:57;;;;;;;36.67;5.35;;;;;;;7.26;100.00;99894.13;5076849;28;20396;-70
2022/11/24 09:31:24;;;;;;;35.85;4.88;;;;;;;7.34;100.00;99899.06;5043219;28;20038;-71
2022/11/24 09:33:50;;;;;;;30.35;4.72;;;;;;;7.43;100.00;99892.91;5059640;28;20028;-71
2022/11/24 09:36:15;;;;;;;41.70;5.55;;;;;;;7.51;100.00;99892.31;5043685;28;20358;-70
2022/11/24 09:38:41;;;;;;;42.50;5.00;;;;;;;7.58;100.00;99890.03;5070164;28;20021;-71
2022/11/24 09:41:31;;;;;;;41.05;4.50;;;;;;;7.66;100.00;99883.03;5076879;28;20108;-70
2022/11/24 09:44:34;;;;;;;37.30;5.32;;;;;;;7.73;100.00;99876.06;5060232;28;20021;-70
2022/11/24 09:47:38;;;;;;;42.17;5.13;;;;;;;7.79;100.00;99861.09;5066373;28;20028;-71
2022/11/24 09:50:16;;;;;;;37.13;5.03;;;;;;;7.86;100.00;99859.94;5102031;28;20607;-70
2022/11/24 09:53:05;;;;;;;34.75;5.35;;;;;;;7.94;100.00;99839.91;5075891;28;20079;-70
2022/11/24 09:55:39;;;;;;;36.60;4.63;;;;;;;8.00;100.00;99836.00;5094326;28;20033;-70
2022/11/24 09:58:08;;;;;;;33.65;4.35;;;;;;;8.08;100.00;99851.97;5039442;28;20033;-70
2022/11/24 10:00:34;;;;;;;31.15;4.93;;;;;;;8.14;100.00;99849.97;5056086;28;20021;-70
2022/11/24 10:02:59;;;;;;;34.70;5.25;;;;;;;8.20;100.00;99849.59;5041519;28;20116;-71
2022/11/24 10:05:25;;;;;;;36.08;5.70;;;;;;;8.30;100.00;99848.63;5042856;28;21459;-71
2022/11/24 10:08:48;;;;;;;32.22;4.97;;;;;;;8.39;100.00;99848.88;5059067;28;20147;-70
2022/11/24 10:11:25;;;;;;;40.38;5.25;;;;;;;8.46;100.00;99847.38;5034638;28;20160;-71
2022/11/24 10:14:17;;;;;;;35.65;4.90;;;;;;;8.56;100.00;99843.66;5002356;28;20029;-70
2022/11/24 10:16:52;;;;;;;36.40;6.03;;;;;;;8.66;100.00;99856.53;5038482;28;20041;-71
2022/11/24 10:19:42;;;;;;;39.88;6.28;;;;;;;8.78;100.00;99839.50;5059505;28;20025;-71
2022/11/24 10:22:26;;;;;;;39.72;5.47;;;;;;;8.87;100.00;99844.06;5096648;28;20052;-71
2022/11/24 10:25:08;;;;;;;45.17;5.47;;;;;;;9.05;100.00;99844.34;5072255;28;20466;-71
2022/11/24 10:27:40;;;;;;;37.30;4.70;;;;;;;9.17;100.00;99848.31;5039311;28;20024;-71
2022/11/24 10:30:19;;;;;;;32.53;5.35;;;;;;;9.33;100.00;99835.06;5055862;28;20058;-71
2022/11/24 10:33:16;;;;;;;42.70;5.40;;;;;;;9.47;100.00;99831.47;5058409;28;20029;-71
2022/11/24 10:35:49;;;;;;;36.22;5.00;;;;;;;9.55;100.00;99842.69;5064692;28;20051;-71
2022/11/24 10:38:34;;;;;;;36.30;5.13;;;;;;;9.67;100.00;99838.63;5075362;28;20384;-71
2022/11/24 10:41:35;;;;;;;42.58;5.82;;;;;;;9.73;100.00;99837.41;5075201;28;20067;-71
2022/11/24 10:44:00;;;;;;;37.22;5.13;;;;;;;9.82;100.00;99839.16;5034013;28;20800;-71
2022/11/24 10:46:26;;;;;;;34.25;4.07;;;;;;;9.87;100.00;99824.41;5017106;28;20038;-71
2022/11/24 10:48:55;;;;;;;35.15;4.80;;;;;;;9.89;100.00;99832.41;5033648;28;20036;-71
2022/11/24 10:51:29;;;;;;;39.58;4.70;;;;;;;9.91;100.00;99830.97;5000678;28;20054;-71
2022/11/24 10:53:58;;;;;;;34.85;5.30;;;;;;;9.93;100.00;99831.50;5033576;28;20037;-71
2022/11/24 10:56:24;;;;;;;35.45;4.13;;;;;;;9.94;100.00;99819.25;5034112;28;20652;-71
2022/11/24 10:58:50;;;;;;;31.20;3.90;;;;;;;9.97;100.00;99817.81;5000329;28;20111;-71
2022/11/24 11:01:21;;;;;;;43.42;5.32;;;;;;;9.96;100.00;99817.00;5014031;28;20034;-71
2022/11/24 11:04:10;;;;;;;37.28;4.68;;;;;;;9.94;100.00;99813.72;4995887;28;20037;-71
2022/11/24 11:06:36;;;;;;;29.60;4.32;;;;;;;9.95;100.00;99815.38;4987529;28;20177;-71
2022/11/24 11:09:08;;;;;;;27.42;4.47;;;;;;;9.94;100.00;99810.94;5033576;28;20030;-71
2022/11/24 11:11:40;;;;;;;34.80;5.03;;;;;;;9.95;100.00;99809.00;5033549;28;20063;-71
2022/11/24 11:14:07;;;;;;;24.25;4.30;;;;;;;9.95;100.00;99807.06;5004888;28;20033;-71
2022/11/24 11:16:39;;;;;;;25.48;4.07;;;;;;;9.95;100.00;99793.19;5000704;28;20120;-71
2022/11/24 11:19:58;;;;;;;33.60;4.30;;;;;;;9.96;100.00;99792.03;5054401;28;20591;-71
2022/11/24 11:35:14;;;;;;;25.83;3.47;;;;;;;10.00;100.00;99768.13;5112221;27;20387;-69
2022/11/24 11:37:40;;;;;;;30.60;4.28;;;;;;;9.97;100.00;99774.28;5078023;28;20028;-69
2022/11/24 11:40:10;;;;;;;28.63;4.72;;;;;;;10.02;100.00;99765.00;5076267;28;20032;-69
2022/11/24 11:43:16;;;;;;;24.92;3.92;;;;;;;10.03;100.00;99767.50;5085534;28;20245;-70